Time;durP1;ratioP1;P1;durP2;ratioP2;P2;SDS_P1;SDS_P2;PMS_P1;PMS_P2;Temp;Humidity;BMP_temperature;BMP_pressure;BME280_temperature;BME280_humidity;BME280_pressure;Samples;Min_cycle;Max_cycle;Signal;HPM_P1;HPM_P2
2021/06/23 00:01:11;;;;;;;16.98;6.97;;;13.30;84.10;;;;;;5260899;27;20006;-84
2021/06/23 00:03:41;;;;;;;18.58;7.18;;;13.40;84.10;;;;;;5262797;27;20010;-85
2021/06/23 00:06:08;;;;;;;17.10;7.53;;;13.30;84.00;;;;;;5261040;27;20020;-84
2021/06/23 00:08:35;;;;;;;21.55;6.90;;;13.40;84.00;;;;;;5259377;27;20028;-84
2021/06/23 00:11:04;;;;;;;18.20;6.75;;;13.30;83.90;;;;;;5259673;27;20010;-85
2021/06/23 00:13:33;;;;;;;15.63;5.93;;;13.30;83.90;;;;;;5261384;27;20041;-84
2021/06/23 00:16:04;;;;;;;23.15;7.37;;;13.30;84.00;;;;;;5259604;27;20374;-84
2021/06/23 00:18:32;;;;;;;21.20;6.60;;;13.30;83.90;;;;;;5260723;27;20097;-84
2021/06/23 00:20:59;;;;;;;16.75;6.07;;;13.30;84.00;;;;;;5259237;27;20033;-84
2021/06/23 00:23:26;;;;;;;19.90;6.78;;;13.20;84.00;;;;;;5258828;27;20025;-86
2021/06/23 00:25:55;;;;;;;25.20;7.87;;;13.20;83.90;;;;;;5259771;27;20011;-84
2021/06/23 00:28:23;;;;;;;17.67;6.25;;;13.20;84.00;;;;;;5259280;27;20030;-85
2021/06/23 00:30:50;;;;;;;20.33;6.97;;;13.30;84.00;;;;;;5259467;27;20029;-84
2021/06/23 00:33:20;;;;;;;17.10;5.78;;;13.30;84.00;;;;;;5263169;27;20033;-84
2021/06/23 00:35:48;;;;;;;18.98;6.18;;;13.20;84.00;;;;;;5259006;27;20046;-84
2021/06/23 00:38:15;;;;;;;20.98;6.60;;;13.20;84.00;;;;;;5260371;27;20101;-84
2021/06/23 00:40:43;;;;;;;17.92;5.97;;;13.20;84.00;;;;;;5259397;27;20080;-84
2021/06/23 00:43:11;;;;;;;17.20;6.80;;;13.20;84.00;;;;;;5260261;27;20022;-85
2021/06/23 00:45:39;;;;;;;12.43;6.32;;;13.20;84.10;;;;;;5259013;27;20022;-83
2021/06/23 00:48:10;;;;;;;15.27;6.30;;;13.10;84.10;;;;;;5260824;27;20022;-85
2021/06/23 00:50:39;;;;;;;17.73;6.62;;;13.20;84.10;;;;;;5259405;27;20026;-84
2021/06/23 00:53:07;;;;;;;12.52;5.97;;;13.10;84.10;;;;;;5260784;27;20002;-84
2021/06/23 00:55:34;;;;;;;15.77;5.95;;;13.10;84.10;;;;;;5258901;27;20010;-85
2021/06/23 00:58:02;;;;;;;14.85;5.78;;;13.10;84.10;;;;;;5259163;27;20010;-84
2021/06/23 01:00:32;;;;;;;20.02;6.72;;;13.10;84.10;;;;;;5260290;27;20025;-84
2021/06/23 01:03:00;;;;;;;16.70;6.03;;;13.10;84.10;;;;;;5259719;27;20029;-84
2021/06/23 01:05:28;;;;;;;14.35;6.22;;;13.10;84.10;;;;;;5258972;27;20002;-84
2021/06/23 01:07:56;;;;;;;16.37;6.25;;;13.10;84.10;;;;;;5262148;27;20009;-85
2021/06/23 01:10:23;;;;;;;15.85;5.90;;;13.10;84.10;;;;;;5262135;27;20084;-85
2021/06/23 01:13:27;;;;;;;16.25;6.32;;;13.10;84.10;;;;;;5260707;27;20040;-84
2021/06/23 01:15:58;;;;;;;21.77;6.57;;;13.00;84.10;;;;;;5261199;27;20026;-84
2021/06/23 01:18:26;;;;;;;21.35;6.82;;;13.10;84.00;;;;;;5262714;27;20049;-84
2021/06/23 01:20:53;;;;;;;17.27;6.10;;;13.00;84.00;;;;;;5262550;27;20025;-84
2021/06/23 01:23:20;;;;;;;17.60;6.22;;;13.00;84.00;;;;;;5260277;27;20029;-84
2021/06/23 01:25:50;;;;;;;17.67;5.43;;;13.00;84.00;;;;;;5260116;27;20058;-84
2021/06/23 01:28:18;;;;;;;14.40;5.43;;;13.10;84.00;;;;;;5260558;27;20029;-84
2021/06/23 01:30:45;;;;;;;17.83;6.30;;;13.00;84.00;;;;;;5260047;27;20037;-84
2021/06/23 01:33:13;;;;;;;18.95;6.25;;;13.00;84.00;;;;;;5260467;27;20025;-84
2021/06/23 01:35:44;;;;;;;18.25;6.00;;;13.10;84.00;;;;;;5260237;27;20041;-84
2021/06/23 01:38:11;;;;;;;24.25;6.22;;;13.00;84.00;;;;;;5260150;27;20006;-84
2021/06/23 01:40:39;;;;;;;18.00;5.82;;;13.10;83.90;;;;;;5261361;27;20033;-84
2021/06/23 01:43:08;;;;;;;17.15;7.12;;;13.10;83.90;;;;;;5260259;27;20010;-84
2021/06/23 01:45:37;;;;;;;11.75;5.28;;;13.10;83.90;;;;;;5261848;27;20024;-85
2021/06/23 01:48:04;;;;;;;13.40;5.68;;;13.10;83.90;;;;;;5260441;27;20019;-85
2021/06/23 01:50:32;;;;;;;14.48;6.87;;;13.10;83.80;;;;;;5261858;27;20033;-84
2021/06/23 01:52:59;;;;;;;15.63;6.82;;;13.10;83.70;;;;;;5262658;27;20010;-84
2021/06/23 01:55:27;;;;;;;14.25;7.60;;;13.10;83.70;;;;;;5260104;27;20028;-85
2021/06/23 01:58:09;;;;;;;15.27;8.43;;;13.10;83.60;;;;;;5261691;27;20025;-86
2021/06/23 02:01:14;;;;;;;18.42;8.20;;;13.10;83.60;;;;;;5260155;27;20030;-85
2021/06/23 02:03:53;;;;;;;25.02;9.68;;;13.00;83.60;;;;;;5261387;27;20029;-85
2021/06/23 02:06:46;;;;;;;24.87;10.70;;;13.00;83.60;;;;;;5260385;27;20060;-85
2021/06/23 02:09:18;;;;;;;28.73;9.68;;;13.00;83.60;;;;;;5262156;27;20025;-86
2021/06/23 02:11:47;;;;;;;20.45;10.15;;;13.00;83.60;;;;;;5260035;27;20022;-85
2021/06/23 02:14:34;;;;;;;23.50;10.27;;;13.00;83.60;;;;;;5262226;27;20364;-85
2021/06/23 02:17:03;;;;;;;16.58;8.45;;;13.00;83.50;;;;;;5259921;27;20037;-85
2021/06/23 02:19:31;;;;;;;20.73;9.75;;;13.00;83.50;;;;;;5259981;27;20018;-85
2021/06/23 02:22:02;;;;;;;18.27;9.18;;;13.00;83.60;;;;;;5260210;27;20021;-85
2021/06/23 02:24:29;;;;;;;15.20;9.45;;;13.00;83.60;;;;;;5259947;27;20341;-85
2021/06/23 02:26:57;;;;;;;16.48;9.10;;;13.00;83.60;;;;;;5260189;27;20382;-85
2021/06/23 02:29:24;;;;;;;24.15;10.20;;;13.00;83.60;;;;;;5259830;27;20011;-85
2021/06/23 02:31:56;;;;;;;19.70;9.75;;;13.00;83.60;;;;;;5260395;27;20032;-85
2021/06/23 02:34:24;;;;;;;21.55;9.65;;;13.00;83.60;;;;;;5261755;27;20052;-85
2021/06/23 02:36:52;;;;;;;21.30;10.18;;;13.00;83.50;;;;;;5261705;27;20025;-85
2021/06/23 02:39:19;;;;;;;17.15;10.07;;;13.00;83.50;;;;;;5259854;27;20040;-84
2021/06/23 02:41:46;;;;;;;24.48;9.45;;;13.00;83.60;;;;;;5259703;27;20009;-84
2021/06/23 02:44:14;;;;;;;15.50;8.60;;;13.00;83.60;;;;;;5260052;27;20322;-84
2021/06/23 02:46:42;;;;;;;14.82;8.88;;;13.10;83.60;;;;;;5260490;27;20037;-85
2021/06/23 02:49:10;;;;;;;19.15;10.43;;;13.10;83.60;;;;;;5259633;27;20433;-84
2021/06/23 02:51:41;;;;;;;16.08;9.27;;;13.00;83.60;;;;;;5259762;27;20006;-85
2021/06/23 02:54:09;;;;;;;16.98;8.77;;;13.10;83.60;;;;;;5261332;27;20366;-84
2021/06/23 02:56:36;;;;;;;19.23;10.07;;;13.10;83.60;;;;;;5259985;27;20010;-84
2021/06/23 02:59:04;;;;;;;16.77;9.75;;;13.10;83.70;;;;;;5259842;27;20417;-85
2021/06/23 03:01:31;;;;;;;19.80;9.98;;;13.10;83.60;;;;;;5261354;27;20020;-84
2021/06/23 03:03:59;;;;;;;13.38;8.95;;;13.10;83.60;;;;;;5262373;27;20006;-85
2021/06/23 03:06:26;;;;;;;16.75;8.98;;;13.10;83.60;;;;;;5260412;27;20338;-85
2021/06/23 03:08:53;;;;;;;21.60;10.40;;;13.10;83.70;;;;;;5259868;27;20009;-84
2021/06/23 03:11:20;;;;;;;18.75;10.68;;;13.20;83.60;;;;;;5261804;27;20006;-85
2021/06/23 03:13:48;;;;;;;20.58;11.90;;;13.10;83.60;;;;;;5261514;27;20391;-85
2021/06/23 03:16:15;;;;;;;18.05;10.85;;;13.20;83.60;;;;;;5259984;27;20022;-85
2021/06/23 03:18:42;;;;;;;23.12;10.60;;;13.20;83.60;;;;;;5259821;27;20025;-85
2021/06/23 03:21:10;;;;;;;16.35;10.60;;;13.20;83.60;;;;;;5260726;27;20009;-85
2021/06/23 03:23:37;;;;;;;19.05;10.82;;;13.10;83.60;;;;;;5259974;27;20042;-85
2021/06/23 03:26:04;;;;;;;12.88;8.60;;;13.20;83.60;;;;;;5260434;27;20042;-85
2021/06/23 03:28:31;;;;;;;19.42;9.20;;;13.20;83.60;;;;;;5260955;27;20039;-85
2021/06/23 03:30:59;;;;;;;19.75;9.57;;;13.20;83.50;;;;;;5260578;27;20385;-85
2021/06/23 03:33:26;;;;;;;15.50;9.15;;;13.20;83.60;;;;;;5259577;27;20362;-85
2021/06/23 03:35:53;;;;;;;19.48;9.23;;;13.10;83.60;;;;;;5258992;27;20022;-84
2021/06/23 03:38:20;;;;;;;19.48;7.05;;;13.20;83.60;;;;;;5259751;27;20011;-85
2021/06/23 03:40:47;;;;;;;15.48;7.30;;;13.10;83.60;;;;;;5259649;27;20020;-85
2021/06/23 03:43:19;;;;;;;10.25;5.30;;;13.20;83.60;;;;;;5259713;27;20043;-85
2021/06/23 03:45:47;;;;;;;17.55;5.03;;;13.10;83.60;;;;;;5260835;27;20287;-85
2021/06/23 03:48:15;;;;;;;12.80;5.75;;;13.10;83.50;;;;;;5259625;27;20056;-86
2021/06/23 03:50:46;;;;;;;15.68;5.22;;;13.10;83.50;;;;;;5260306;27;20009;-85
2021/06/23 03:53:14;;;;;;;9.20;4.20;;;13.10;83.50;;;;;;5260178;27;20382;-86
2021/06/23 03:55:41;;;;;;;14.57;4.65;;;13.10;83.50;;;;;;5259284;27;20041;-86
2021/06/23 03:58:08;;;;;;;14.80;4.40;;;13.10;83.50;;;;;;5260468;27;20006;-86
2021/06/23 04:00:35;;;;;;;14.38;4.35;;;13.10;83.50;;;;;;5259542;27;20389;-86
2021/06/23 04:03:03;;;;;;;15.80;4.45;;;13.10;83.50;;;;;;5260216;27;20066;-86
2021/06/23 04:05:31;;;;;;;5.85;3.58;;;13.10;83.50;;;;;;5259041;27;20016;-86
2021/06/23 04:07:57;;;;;;;12.05;3.70;;;13.00;83.50;;;;;;5260939;27;20299;-86
2021/06/23 04:10:24;;;;;;;10.95;4.07;;;13.00;83.40;;;;;;5259086;27;20032;-85
2021/06/23 04:12:52;;;;;;;9.60;3.92;;;13.00;83.40;;;;;;5259063;27;20037;-86
2021/06/23 04:15:19;;;;;;;14.18;3.72;;;12.90;83.40;;;;;;5259624;27;20010;-85
2021/06/23 04:17:49;;;;;;;12.93;3.80;;;12.90;83.50;;;;;;5261809;27;20006;-85
2021/06/23 04:20:16;;;;;;;8.02;3.50;;;12.90;83.50;;;;;;5259153;27;20029;-85
2021/06/23 04:22:44;;;;;;;14.80;3.87;;;12.90;83.50;;;;;;5260718;27;20032;-85
2021/06/23 04:25:12;;;;;;;9.52;3.33;;;12.90;83.50;;;;;;5259538;27;20378;-86
2021/06/23 04:27:40;;;;;;;9.95;3.40;;;12.90;83.50;;;;;;5259353;27;20038;-85
2021/06/23 04:30:11;;;;;;;10.40;3.33;;;12.90;83.50;;;;;;5258944;27;20010;-86
2021/06/23 04:32:39;;;;;;;11.05;3.20;;;12.90;83.50;;;;;;5259561;27;20026;-85
2021/06/23 04:35:08;;;;;;;11.48;3.90;;;12.90;83.50;;;;;;5258714;27;20026;-85
2021/06/23 04:37:36;;;;;;;19.90;4.68;;;12.90;83.50;;;;;;5260728;27;20003;-85
2021/06/23 04:40:06;;;;;;;15.10;3.87;;;12.90;83.50;;;;;;5259465;27;20014;-85
2021/06/23 04:42:33;;;;;;;12.93;3.65;;;12.90;83.50;;;;;;5260310;27;20563;-86
2021/06/23 04:45:00;;;;;;;11.50;3.45;;;12.90;83.50;;;;;;5260832;27;20366;-85
2021/06/23 04:47:27;;;;;;;11.25;3.58;;;12.80;83.50;;;;;;5261988;27;20086;-85
2021/06/23 04:49:54;;;;;;;10.63;3.42;;;12.90;83.60;;;;;;5260710;27;20342;-84
2021/06/23 04:52:22;;;;;;;12.25;3.50;;;12.80;83.60;;;;;;5261598;27;20011;-85
2021/06/23 04:54:49;;;;;;;18.48;3.85;;;12.80;83.60;;;;;;5262928;27;20058;-86
2021/06/23 04:57:16;;;;;;;11.25;3.30;;;12.80;83.60;;;;;;5260737;27;20069;-86
2021/06/23 04:59:44;;;;;;;11.70;2.90;;;12.80;83.50;;;;;;5260254;27;20044;-86
2021/06/23 05:02:12;;;;;;;10.48;3.92;;;12.80;83.50;;;;;;5260590;27;20015;-86
2021/06/23 05:04:40;;;;;;;13.73;4.15;;;12.80;83.50;;;;;;5261135;27;20006;-86
2021/06/23 05:07:07;;;;;;;14.95;3.60;;;12.90;83.50;;;;;;5260757;27;20017;-86
2021/06/23 05:09:41;;;;;;;14.07;3.90;;;12.90;83.60;;;;;;5261614;27;20009;-86
2021/06/23 05:12:09;;;;;;;12.77;3.83;;;12.80;83.60;;;;;;5261467;27;20010;-87
2021/06/23 05:14:37;;;;;;;6.22;3.50;;;12.80;83.60;;;;;;5262051;27;20020;-86
2021/06/23 05:17:05;;;;;;;17.08;4.68;;;12.80;83.50;;;;;;5260557;27;20038;-87
2021/06/23 05:19:36;;;;;;;10.75;3.87;;;12.80;83.60;;;;;;5263002;27;20025;-86
2021/06/23 05:22:04;;;;;;;12.55;4.07;;;12.80;83.60;;;;;;5260606;27;20010;-86
2021/06/23 05:24:34;;;;;;;14.43;3.95;;;12.90;83.60;;;;;;5260493;27;20026;-87
2021/06/23 05:27:01;;;;;;;14.90;4.28;;;12.90;83.60;;;;;;5260925;27;20337;-86
2021/06/23 05:29:28;;;;;;;18.27;4.70;;;12.90;83.60;;;;;;5262196;27;20332;-86
2021/06/23 05:31:55;;;;;;;10.90;4.07;;;12.90;83.60;;;;;;5262746;27;20006;-86
2021/06/23 05:34:22;;;;;;;10.77;3.47;;;12.90;83.60;;;;;;5261445;27;20018;-86
2021/06/23 05:36:49;;;;;;;17.65;5.10;;;12.90;83.70;;;;;;5261791;27;20026;-86
2021/06/23 05:39:19;;;;;;;11.55;4.25;;;12.90;83.60;;;;;;5261683;27;20006;-87
2021/06/23 05:41:47;;;;;;;15.52;4.32;;;12.90;83.70;;;;;;5260134;27;20010;-86
2021/06/23 05:44:14;;;;;;;9.38;3.95;;;12.90;83.60;;;;;;5260637;27;20006;-86
2021/06/23 05:46:41;;;;;;;19.33;5.05;;;12.90;83.70;;;;;;5261658;27;20033;-86
2021/06/23 05:49:09;;;;;;;13.70;4.32;;;12.90;83.60;;;;;;5259995;27;20010;-86
2021/06/23 05:51:36;;;;;;;15.95;4.90;;;12.90;83.60;;;;;;5260190;27;20432;-86
2021/06/23 05:54:03;;;;;;;12.73;4.57;;;12.90;83.60;;;;;;5260258;27;20061;-86
2021/06/23 05:56:30;;;;;;;14.48;4.25;;;12.90;83.60;;;;;;5259996;27;20381;-87
2021/06/23 05:59:00;;;;;;;9.43;3.70;;;12.90;83.50;;;;;;5260544;27;20017;-86
2021/06/23 06:01:27;;;;;;;14.52;4.35;;;12.90;83.50;;;;;;5260380;27;20017;-86
2021/06/23 06:03:54;;;;;;;18.25;4.53;;;13.00;83.50;;;;;;5260448;27;20010;-86
2021/06/23 06:06:21;;;;;;;7.87;3.83;;;13.00;83.60;;;;;;5260380;27;20025;-86
2021/06/23 06:08:49;;;;;;;16.90;5.50;;;13.00;83.50;;;;;;5260135;27;20021;-86
2021/06/23 06:11:16;;;;;;;18.08;5.70;;;13.00;83.50;;;;;;5260106;27;20029;-86
2021/06/23 06:13:43;;;;;;;15.65;6.00;;;13.00;83.50;;;;;;5260397;27;20025;-86
2021/06/23 06:16:10;;;;;;;17.83;5.43;;;13.00;83.50;;;;;;5260107;27;20022;-86
2021/06/23 06:18:38;;;;;;;14.82;4.87;;;13.00;83.50;;;;;;5260095;27;20010;-87
2021/06/23 06:21:05;;;;;;;17.80;5.57;;;13.00;83.60;;;;;;5260277;27;20045;-86
2021/06/23 06:23:33;;;;;;;11.30;5.50;;;13.00;83.60;;;;;;5261519;27;20021;-86
2021/06/23 06:26:00;;;;;;;18.15;5.62;;;13.00;83.60;;;;;;5260169;27;20010;-86
2021/06/23 06:28:27;;;;;;;13.93;5.80;;;13.00;83.60;;;;;;5259989;27;20040;-85
2021/06/23 06:30:54;;;;;;;14.75;4.87;;;13.00;83.70;;;;;;5260337;27;20014;-86
2021/06/23 06:33:21;;;;;;;13.90;5.57;;;13.10;83.70;;;;;;5257982;27;20019;-85
2021/06/23 06:35:51;;;;;;;14.02;6.10;;;13.10;83.70;;;;;;5257518;27;20044;-86
2021/06/23 06:38:18;;;;;;;17.27;6.32;;;13.00;83.70;;;;;;5258755;27;20735;-85
2021/06/23 06:40:45;;;;;;;15.68;5.45;;;13.20;83.80;;;;;;5258672;27;20465;-86
2021/06/23 06:43:19;;;;;;;16.20;5.50;;;13.10;83.80;;;;;;5258826;27;20010;-85
2021/06/23 06:45:48;;;;;;;19.15;5.87;;;13.20;83.80;;;;;;5260020;27;20025;-86
2021/06/23 06:48:15;;;;;;;19.17;5.57;;;13.20;83.80;;;;;;5258433;27;20057;-86
2021/06/23 06:50:45;;;;;;;10.10;4.93;;;13.20;83.80;;;;;;5259598;27;20394;-85
2021/06/23 06:53:12;;;;;;;21.17;6.20;;;13.20;83.70;;;;;;5258724;27;20013;-85
2021/06/23 06:55:40;;;;;;;13.02;5.60;;;13.20;83.70;;;;;;5258266;27;20026;-86
2021/06/23 06:58:07;;;;;;;12.63;5.87;;;13.30;83.70;;;;;;5258335;27;20428;-86
2021/06/23 07:00:35;;;;;;;19.37;6.62;;;13.30;83.70;;;;;;5258613;27;20030;-86
2021/06/23 07:03:02;;;;;;;17.33;6.45;;;13.30;83.70;;;;;;5258822;27;20032;-85
2021/06/23 07:05:29;;;;;;;19.10;6.90;;;13.40;83.70;;;;;;5257832;27;20032;-86
2021/06/23 07:08:00;;;;;;;18.77;6.57;;;13.40;83.60;;;;;;5259989;27;20037;-87
2021/06/23 07:10:27;;;;;;;14.65;6.78;;;13.40;83.50;;;;;;5258329;27;20011;-87
2021/06/23 07:12:57;;;;;;;12.77;6.75;;;13.40;83.50;;;;;;5259684;27;20025;-87
2021/06/23 07:15:24;;;;;;;16.90;7.07;;;13.40;83.50;;;;;;5258710;27;20053;-86
2021/06/23 07:17:52;;;;;;;19.30;7.85;;;13.40;83.50;;;;;;5258518;27;20011;-87
2021/06/23 07:20:20;;;;;;;17.23;7.30;;;13.40;83.40;;;;;;5258448;27;20321;-86
2021/06/23 07:22:47;;;;;;;18.83;7.62;;;13.40;83.30;;;;;;5258662;27;20006;-87
2021/06/23 07:25:14;;;;;;;19.25;7.97;;;13.50;83.20;;;;;;5260219;27;20046;-87
2021/06/23 07:27:42;;;;;;;20.52;9.27;;;13.50;83.20;;;;;;5258225;27;20029;-87
2021/06/23 07:30:10;;;;;;;15.82;8.65;;;13.50;83.20;;;;;;5258758;27;20059;-86
2021/06/23 07:38:20;;;;;;;22.13;10.63;;;13.70;83.20;;;;;;5259926;27;20069;-86
2021/06/23 07:41:02;;;;;;;20.75;9.82;;;13.80;83.20;;;;;;5259985;27;20014;-86
2021/06/23 07:43:29;;;;;;;21.02;10.02;;;13.80;83.20;;;;;;5258090;27;20026;-87
2021/06/23 07:45:58;;;;;;;18.12;10.18;;;13.90;82.90;;;;;;5257921;27;20329;-86
2021/06/23 07:48:38;;;;;;;21.40;9.85;;;13.90;82.70;;;;;;5259506;27;20019;-87
2021/06/23 07:51:14;;;;;;;18.27;9.95;;;13.90;82.40;;;;;;5257675;27;20073;-87
2021/06/23 08:10:09;;;;;;;23.45;10.55;;;14.20;81.60;;;;;;5260925;27;20041;-86
2021/06/23 08:12:45;;;;;;;18.67;8.88;;;14.30;81.70;;;;;;5258692;27;20403;-86
2021/06/23 08:15:12;;;;;;;20.30;8.80;;;14.40;81.60;;;;;;5258045;27;20005;-87
2021/06/23 08:17:40;;;;;;;16.80;8.35;;;14.50;80.40;;;;;;5258240;27;20006;-87
2021/06/23 08:20:07;;;;;;;17.92;9.10;;;14.50;79.80;;;;;;5257652;27;20361;-86
2021/06/23 08:22:34;;;;;;;20.70;10.00;;;14.70;79.60;;;;;;5258129;27;20025;-85
2021/06/23 08:25:03;;;;;;;18.75;10.43;;;14.80;79.70;;;;;;5258021;27;20044;-86
2021/06/23 08:27:30;;;;;;;20.17;10.02;;;14.90;79.60;;;;;;5259190;27;20025;-86
2021/06/23 08:29:57;;;;;;;13.90;8.63;;;15.00;79.60;;;;;;5257856;27;20006;-86
2021/06/23 08:32:25;;;;;;;19.00;9.15;;;15.00;79.30;;;;;;5258061;27;20034;-86
2021/06/23 08:38:12;;;;;;;17.92;8.90;;;15.10;78.70;;;;;;5130492;27;20383;-85
2021/06/23 08:40:39;;;;;;;18.77;8.20;;;15.30;78.50;;;;;;5128964;28;20083;-85
2021/06/23 08:43:13;;;;;;;15.45;8.45;;;15.40;78.30;;;;;;5129179;28;20424;-85
2021/06/23 08:45:44;;;;;;;17.23;8.63;;;15.40;78.30;;;;;;5129342;28;20050;-85
2021/06/23 08:48:11;;;;;;;13.43;8.00;;;15.50;78.00;;;;;;5128913;28;20055;-85
2021/06/23 08:50:40;;;;;;;19.58;8.80;;;15.60;78.00;;;;;;5128948;28;20508;-85
2021/06/23 08:53:58;;;;;;;11.88;7.40;;;15.60;77.60;;;;;;5127946;27;20056;-89
2021/06/23 08:56:46;;;;;;;14.15;8.48;;;15.60;76.70;;;;;;5439991;22;20049;-89
2021/06/23 08:59:17;;;;;;;;;;;15.70;76.80;;;;;;5072262;28;20049;-87
2021/06/23 09:01:44;;;;;;;15.65;7.78;;;15.70;76.90;;;;;;5087924;28;19958;-83
2021/06/23 09:04:14;;;;;;;16.38;7.85;;;15.80;77.00;;;;;;5071192;28;20048;-83
2021/06/23 09:06:58;;;;;;;14.80;7.20;;;15.80;77.20;;;;;;5071588;28;20060;-83
2021/06/23 09:09:37;;;;;;;14.13;7.80;;;15.90;77.40;;;;;;5088541;28;20048;-84
2021/06/23 09:12:05;;;;;;;13.73;7.80;;;15.90;77.50;;;;;;5070378;28;20048;-84
2021/06/23 09:14:36;;;;;;;19.40;7.93;;;16.00;77.40;;;;;;5070664;28;20420;-84
2021/06/23 09:17:11;;;;;;;17.15;8.80;;;16.00;77.20;;;;;;5070415;28;20460;-84
2021/06/23 09:19:57;;;;;;;24.08;8.65;;;16.00;77.00;;;;;;5072807;28;20131;-84
2021/06/23 09:22:45;;;;;;;12.23;7.57;;;16.10;77.00;;;;;;5070958;28;20052;-84
2021/06/23 09:25:12;;;;;;;14.65;8.00;;;16.10;76.80;;;;;;5066242;28;20058;-84
2021/06/23 09:28:12;;;;;;;20.98;7.75;;;16.10;76.70;;;;;;5070959;28;20052;-84
2021/06/23 09:30:42;;;;;;;15.00;7.47;;;16.20;76.10;;;;;;5078631;28;20122;-84
2021/06/23 09:33:27;;;;;;;14.50;7.65;;;16.20;75.50;;;;;;5090689;28;20048;-84
2021/06/23 09:36:03;;;;;;;15.65;7.82;;;16.20;75.10;;;;;;5089762;28;20055;-83
2021/06/23 09:38:52;;;;;;;15.95;7.32;;;16.20;75.20;;;;;;5073419;28;20055;-84
2021/06/23 09:41:21;;;;;;;12.70;6.38;;;16.20;75.50;;;;;;5070166;28;20147;-84
2021/06/23 09:44:10;;;;;;;17.98;6.97;;;16.10;75.40;;;;;;5071944;28;20068;-84
2021/06/23 09:46:43;;;;;;;11.35;6.25;;;16.20;75.40;;;;;;5070422;28;20056;-82
2021/06/23 09:49:17;;;;;;;15.50;6.55;;;16.20;75.40;;;;;;5057750;28;20406;-82
2021/06/23 09:51:52;;;;;;;16.60;6.90;;;16.20;75.20;;;;;;5057003;28;20051;-82
2021/06/23 09:54:30;;;;;;;15.48;6.30;;;16.20;75.00;;;;;;5074647;28;20048;-82
2021/06/23 09:57:12;;;;;;;14.52;6.90;;;16.20;75.00;;;;;;5055808;28;20102;-83
2021/06/23 09:59:48;;;;;;;20.25;7.20;;;16.20;75.00;;;;;;5056966;28;20045;-82
2021/06/23 10:02:30;;;;;;;17.85;7.15;;;16.30;75.20;;;;;;5056631;28;20052;-82
2021/06/23 10:04:59;;;;;;;13.15;6.45;;;16.30;75.20;;;;;;5057034;28;20041;-82
2021/06/23 10:07:49;;;;;;;13.20;7.05;;;16.30;75.40;;;;;;5056422;28;20048;-85
2021/06/23 10:10:24;;;;;;;16.17;7.45;;;16.40;75.40;;;;;;5056474;28;20067;-84
2021/06/23 10:12:54;;;;;;;17.35;8.38;;;16.40;74.80;;;;;;4995700;28;20647;-87
2021/06/23 10:15:22;;;;;;;14.07;7.90;;;16.40;74.80;;;;;;5008473;28;20053;-86
2021/06/23 10:17:50;;;;;;;13.93;7.25;;;16.50;74.80;;;;;;4996856;28;20050;-85
2021/06/23 10:20:20;;;;;;;15.70;7.88;;;16.50;75.20;;;;;;4997065;28;20050;-86
2021/06/23 10:22:50;;;;;;;21.67;8.50;;;16.60;74.70;;;;;;4996880;28;20862;-86
2021/06/23 10:25:18;;;;;;;14.32;8.30;;;16.60;74.80;;;;;;4996614;28;20073;-84
2021/06/23 10:27:49;;;;;;;19.55;8.15;;;16.70;74.70;;;;;;4996846;28;20042;-84
2021/06/23 10:30:18;;;;;;;15.40;8.32;;;16.70;74.70;;;;;;4997268;28;20058;-82
2021/06/23 10:32:45;;;;;;;16.48;8.52;;;16.80;74.70;;;;;;5013616;28;20054;-83
2021/06/23 10:35:15;;;;;;;19.85;9.00;;;16.80;74.70;;;;;;4996601;28;20046;-83
2021/06/23 10:37:44;;;;;;;18.08;8.75;;;16.80;74.90;;;;;;4992866;28;20054;-84
2021/06/23 10:40:14;;;;;;;15.25;9.18;;;16.80;74.70;;;;;;4992952;28;20098;-83
2021/06/23 10:42:41;;;;;;;17.20;8.63;;;16.80;74.30;;;;;;4993027;28;20054;-83
2021/06/23 10:45:09;;;;;;;15.50;8.98;;;16.80;74.00;;;;;;4993426;28;20066;-83
2021/06/23 10:47:42;;;;;;;14.77;8.63;;;16.90;74.00;;;;;;4993230;28;20133;-83
2021/06/23 10:50:16;;;;;;;14.05;9.13;;;16.90;73.90;;;;;;4992918;28;20937;-84
2021/06/23 10:52:45;;;;;;;15.57;8.43;;;16.90;73.80;;;;;;4976985;28;20047;-82
2021/06/23 10:55:21;;;;;;;21.90;10.95;;;16.90;73.60;;;;;;4992299;28;20061;-83
2021/06/23 10:57:55;;;;;;;20.20;9.85;;;16.90;73.60;;;;;;5010681;28;20463;-85
2021/06/23 11:00:24;;;;;;;20.08;9.25;;;16.90;73.40;;;;;;4995248;28;20054;-83
2021/06/23 11:03:03;;;;;;;19.65;10.40;;;16.90;73.30;;;;;;4996314;28;20061;-83
2021/06/23 11:05:39;;;;;;;16.40;9.43;;;17.00;73.40;;;;;;4995840;28;20050;-83
2021/06/23 11:08:33;;;;;;;17.52;10.23;;;17.00;73.20;;;;;;4996199;28;20073;-82
2021/06/23 11:11:05;;;;;;;15.98;10.32;;;17.00;72.80;;;;;;5013171;28;20061;-83
2021/06/23 11:13:37;;;;;;;16.98;10.80;;;17.00;72.90;;;;;;4994616;28;20124;-82
2021/06/23 11:16:06;;;;;;;19.83;11.55;;;17.00;72.90;;;;;;4976077;28;20050;-83
2021/06/23 11:18:35;;;;;;;21.02;10.88;;;17.10;73.20;;;;;;4976499;28;20050;-82
2021/06/23 11:21:16;;;;;;;25.40;11.55;;;17.00;73.10;;;;;;4993582;28;20664;-82
2021/06/23 11:23:45;;;;;;;22.02;12.77;;;17.10;73.00;;;;;;4992362;28;20050;-82
2021/06/23 11:26:21;;;;;;;18.85;12.48;;;17.10;73.00;;;;;;4976423;28;20050;-82
2021/06/23 11:29:18;;;;;;;17.13;11.35;;;17.10;73.10;;;;;;5004284;28;20129;-82
2021/06/23 11:31:46;;;;;;;20.38;12.10;;;17.20;73.10;;;;;;4986379;28;20507;-81
2021/06/23 11:34:39;;;;;;;23.10;13.82;;;17.20;73.00;;;;;;4995835;28;20057;-82
2021/06/23 11:37:08;;;;;;;23.65;13.95;;;17.20;72.70;;;;;;5012628;28;20077;-83
2021/06/23 11:39:36;;;;;;;25.08;16.17;;;17.20;72.60;;;;;;4995515;28;20046;-82
2021/06/23 11:42:04;;;;;;;20.30;13.43;;;17.20;72.80;;;;;;4995425;28;20046;-82
2021/06/23 11:44:33;;;;;;;25.40;15.98;;;17.20;72.60;;;;;;4995777;28;20056;-84
2021/06/23 11:47:01;;;;;;;23.15;14.77;;;17.30;72.80;;;;;;4996816;28;20053;-84
2021/06/23 11:49:30;;;;;;;24.45;13.80;;;17.30;73.20;;;;;;4996095;28;20053;-85
2021/06/23 11:51:58;;;;;;;27.98;15.52;;;17.30;72.80;;;;;;4996231;28;20081;-84
2021/06/23 11:54:26;;;;;;;29.30;15.90;;;17.30;72.40;;;;;;4996166;28;20054;-84
2021/06/23 11:56:53;;;;;;;29.17;15.90;;;17.30;72.40;;;;;;4995878;28;20058;-84
2021/06/23 11:59:20;;;;;;;27.83;14.60;;;17.40;72.70;;;;;;4995839;28;20053;-85
2021/06/23 12:01:48;;;;;;;27.45;15.68;;;17.40;72.60;;;;;;4996147;28;20079;-85
2021/06/23 12:04:18;;;;;;;22.02;14.23;;;17.40;72.30;;;;;;4996464;28;20562;-84
2021/06/23 12:06:45;;;;;;;23.52;13.80;;;17.40;72.10;;;;;;4995708;28;20388;-84
2021/06/23 12:09:12;;;;;;;22.88;12.43;;;17.40;72.30;;;;;;4996004;28;20046;-84
2021/06/23 12:11:39;;;;;;;19.95;12.00;;;17.40;72.00;;;;;;4995352;28;20042;-85
2021/06/23 12:14:06;;;;;;;14.73;9.43;;;17.50;71.90;;;;;;4995667;28;20153;-85
2021/06/23 12:16:34;;;;;;;14.80;8.60;;;17.50;71.70;;;;;;4995750;28;20136;-85
2021/06/23 12:19:01;;;;;;;14.35;8.50;;;17.60;71.30;;;;;;4995618;28;20060;-84
2021/06/23 12:21:30;;;;;;;15.98;8.65;;;17.60;71.10;;;;;;4995678;28;20052;-86
2021/06/23 12:23:59;;;;;;;12.75;7.85;;;17.60;71.10;;;;;;4995954;28;20054;-85
2021/06/23 12:26:26;;;;;;;17.90;9.27;;;17.70;70.90;;;;;;4995785;28;20583;-85
2021/06/23 12:28:53;;;;;;;15.63;8.68;;;17.80;70.70;;;;;;4995721;28;20056;-86
2021/06/23 12:31:20;;;;;;;17.83;10.18;;;17.90;70.80;;;;;;4995549;28;20057;-85
2021/06/23 12:33:48;;;;;;;23.10;12.40;;;18.00;70.80;;;;;;4995532;28;20599;-84
2021/06/23 12:36:16;;;;;;;25.38;13.50;;;18.00;69.80;;;;;;4995563;28;20569;-85
2021/06/23 12:38:43;;;;;;;20.15;12.80;;;18.10;69.20;;;;;;4995437;28;20052;-84
2021/06/23 12:41:11;;;;;;;17.40;11.82;;;18.10;68.20;;;;;;5013155;28;20403;-84
2021/06/23 12:43:38;;;;;;;20.08;13.75;;;18.10;68.10;;;;;;4995641;28;20076;-86
2021/06/23 12:46:06;;;;;;;23.45;13.65;;;18.10;68.60;;;;;;4995182;28;20052;-84
2021/06/23 12:48:33;;;;;;;24.45;13.23;;;18.10;68.90;;;;;;4995606;28;20080;-83
2021/06/23 12:51:00;;;;;;;21.73;13.52;;;18.10;68.00;;;;;;5013045;28;20054;-85
2021/06/23 12:53:27;;;;;;;23.95;13.85;;;18.10;67.80;;;;;;4995281;28;20085;-85
2021/06/23 12:55:54;;;;;;;21.85;13.30;;;18.00;67.60;;;;;;4995119;28;20048;-84
2021/06/23 12:58:22;;;;;;;27.92;13.50;;;18.00;67.50;;;;;;5003199;28;20064;-86
2021/06/23 13:00:50;;;;;;;23.55;13.93;;;17.90;67.90;;;;;;4995046;28;20053;-84
2021/06/23 13:03:19;;;;;;;23.02;14.38;;;17.90;68.20;;;;;;4995717;28;20050;-85
2021/06/23 13:05:46;;;;;;;24.58;13.98;;;17.90;68.40;;;;;;4995273;28;20415;-85
2021/06/23 13:08:13;;;;;;;26.42;14.88;;;17.90;68.50;;;;;;4995531;28;20057;-85
2021/06/23 13:10:41;;;;;;;22.90;13.93;;;17.90;69.00;;;;;;4995206;28;20045;-84
2021/06/23 13:13:08;;;;;;;28.17;14.00;;;17.90;69.10;;;;;;4994997;28;20133;-84
2021/06/23 13:15:37;;;;;;;20.67;13.50;;;17.90;69.20;;;;;;4995108;28;20396;-84